sensor_id;sensor_type;location;lat;lon;timestamp;P1;durP1;ratioP1;P2;durP2;ratioP2
29662;SDS011;16578;53.266;7.920;2024-01-07T00:01:49;9.88;;;5.95;;
29662;SDS011;16578;53.266;7.920;2024-01-07T00:04:15;12.18;;;6.10;;
29662;SDS011;16578;53.266;7.920;2024-01-07T00:06:41;9.95;;;5.80;;
29662;SDS011;16578;53.266;7.920;2024-01-07T00:09:06;9.38;;;5.55;;
29662;SDS011;16578;53.266;7.920;2024-01-07T00:11:32;7.45;;;4.93;;
29662;SDS011;16578;53.266;7.920;2024-01-07T00:13:57;6.82;;;5.55;;
29662;SDS011;16578;53.266;7.920;2024-01-07T00:16:23;9.20;;;5.65;;
29662;SDS011;16578;53.266;7.920;2024-01-07T00:18:49;9.52;;;5.53;;
29662;SDS011;16578;53.266;7.920;2024-01-07T00:21:14;7.28;;;5.75;;
29662;SDS011;16578;53.266;7.920;2024-01-07T00:23:40;8.13;;;5.57;;
29662;SDS011;16578;53.266;7.920;2024-01-07T00:26:05;6.93;;;5.22;;
29662;SDS011;16578;53.266;7.920;2024-01-07T00:28:32;7.30;;;5.22;;
29662;SDS011;16578;53.266;7.920;2024-01-07T00:30:57;7.40;;;4.72;;
29662;SDS011;16578;53.266;7.920;2024-01-07T00:33:23;8.43;;;5.15;;
29662;SDS011;16578;53.266;7.920;2024-01-07T00:35:48;10.52;;;5.15;;
29662;SDS011;16578;53.266;7.920;2024-01-07T00:38:14;7.20;;;4.55;;
29662;SDS011;16578;53.266;7.920;2024-01-07T00:40:39;5.75;;;4.20;;
29662;SDS011;16578;53.266;7.920;2024-01-07T00:43:05;7.05;;;4.38;;
29662;SDS011;16578;53.266;7.920;2024-01-07T00:45:31;8.43;;;5.13;;
29662;SDS011;16578;53.266;7.920;2024-01-07T00:47:56;6.13;;;4.18;;
29662;SDS011;16578;53.266;7.920;2024-01-07T00:50:22;6.65;;;3.80;;
29662;SDS011;16578;53.266;7.920;2024-01-07T00:52:47;7.35;;;4.30;;
29662;SDS011;16578;53.266;7.920;2024-01-07T00:55:13;7.22;;;4.40;;
29662;SDS011;16578;53.266;7.920;2024-01-07T00:57:38;6.03;;;4.45;;
29662;SDS011;16578;53.266;7.920;2024-01-07T01:00:04;5.85;;;4.30;;
29662;SDS011;16578;53.266;7.920;2024-01-07T01:02:31;6.93;;;4.70;;
29662;SDS011;16578;53.266;7.920;2024-01-07T01:04:57;6.28;;;4.65;;
29662;SDS011;16578;53.266;7.920;2024-01-07T01:07:22;7.22;;;4.38;;
29662;SDS011;16578;53.266;7.920;2024-01-07T01:09:48;7.38;;;4.25;;
29662;SDS011;16578;53.266;7.920;2024-01-07T01:12:14;6.43;;;3.65;;
29662;SDS011;16578;53.266;7.920;2024-01-07T01:14:40;6.70;;;4.57;;
29662;SDS011;16578;53.266;7.920;2024-01-07T01:17:06;6.15;;;4.47;;
29662;SDS011;16578;53.266;7.920;2024-01-07T01:19:31;7.72;;;4.45;;
29662;SDS011;16578;53.266;7.920;2024-01-07T01:21:57;6.50;;;4.28;;
29662;SDS011;16578;53.266;7.920;2024-01-07T01:24:23;6.38;;;4.47;;
29662;SDS011;16578;53.266;7.920;2024-01-07T01:26:48;5.80;;;3.90;;
29662;SDS011;16578;53.266;7.920;2024-01-07T01:29:14;8.25;;;4.93;;
29662;SDS011;16578;53.266;7.920;2024-01-07T01:31:39;6.45;;;4.07;;
29662;SDS011;16578;53.266;7.920;2024-01-07T01:34:05;7.55;;;3.90;;
29662;SDS011;16578;53.266;7.920;2024-01-07T01:36:31;6.20;;;4.10;;
29662;SDS011;16578;53.266;7.920;2024-01-07T01:38:57;5.75;;;4.07;;
29662;SDS011;16578;53.266;7.920;2024-01-07T01:41:22;10.80;;;4.40;;
29662;SDS011;16578;53.266;7.920;2024-01-07T01:43:48;7.00;;;3.53;;
29662;SDS011;16578;53.266;7.920;2024-01-07T01:46:14;6.07;;;3.75;;
29662;SDS011;16578;53.266;7.920;2024-01-07T01:48:39;7.43;;;4.35;;
29662;SDS011;16578;53.266;7.920;2024-01-07T01:51:06;6.00;;;4.32;;
29662;SDS011;16578;53.266;7.920;2024-01-07T01:53:32;7.97;;;3.83;;
29662;SDS011;16578;53.266;7.920;2024-01-07T01:55:58;5.75;;;3.15;;
29662;SDS011;16578;53.266;7.920;2024-01-07T01:58:27;4.63;;;3.25;;
29662;SDS011;16578;53.266;7.920;2024-01-07T02:00:54;9.55;;;3.72;;
29662;SDS011;16578;53.266;7.920;2024-01-07T02:03:20;4.60;;;3.40;;
29662;SDS011;16578;53.266;7.920;2024-01-07T02:05:45;5.85;;;4.18;;
29662;SDS011;16578;53.266;7.920;2024-01-07T02:08:14;5.78;;;3.55;;
29662;SDS011;16578;53.266;7.920;2024-01-07T02:10:39;5.68;;;3.60;;
29662;SDS011;16578;53.266;7.920;2024-01-07T02:13:05;5.85;;;3.33;;
29662;SDS011;16578;53.266;7.920;2024-01-07T02:15:31;5.00;;;3.45;;
29662;SDS011;16578;53.266;7.920;2024-01-07T02:17:56;4.10;;;3.15;;
29662;SDS011;16578;53.266;7.920;2024-01-07T02:20:23;7.03;;;3.85;;
29662;SDS011;16578;53.266;7.920;2024-01-07T02:22:48;5.25;;;2.95;;
29662;SDS011;16578;53.266;7.920;2024-01-07T02:25:14;5.82;;;3.03;;
29662;SDS011;16578;53.266;7.920;2024-01-07T02:27:40;6.47;;;3.28;;
29662;SDS011;16578;53.266;7.920;2024-01-07T02:30:05;4.13;;;2.97;;
29662;SDS011;16578;53.266;7.920;2024-01-07T02:32:32;8.98;;;3.05;;
29662;SDS011;16578;53.266;7.920;2024-01-07T02:34:59;4.95;;;3.17;;
29662;SDS011;16578;53.266;7.920;2024-01-07T02:37:25;5.25;;;3.35;;
29662;SDS011;16578;53.266;7.920;2024-01-07T02:39:51;4.80;;;3.10;;
29662;SDS011;16578;53.266;7.920;2024-01-07T02:42:16;4.15;;;2.70;;
29662;SDS011;16578;53.266;7.920;2024-01-07T02:44:42;6.97;;;4.05;;
29662;SDS011;16578;53.266;7.920;2024-01-07T02:47:08;5.22;;;3.28;;
29662;SDS011;16578;53.266;7.920;2024-01-07T02:49:33;4.53;;;3.10;;
29662;SDS011;16578;53.266;7.920;2024-01-07T02:51:59;4.90;;;3.25;;
29662;SDS011;16578;53.266;7.920;2024-01-07T02:54:25;4.43;;;2.65;;
29662;SDS011;16578;53.266;7.920;2024-01-07T02:56:50;5.47;;;2.60;;
29662;SDS011;16578;53.266;7.920;2024-01-07T02:59:16;4.95;;;3.17;;
29662;SDS011;16578;53.266;7.920;2024-01-07T03:01:41;3.45;;;2.47;;
29662;SDS011;16578;53.266;7.920;2024-01-07T03:04:12;4.78;;;2.50;;
29662;SDS011;16578;53.266;7.920;2024-01-07T03:06:38;3.00;;;2.60;;
29662;SDS011;16578;53.266;7.920;2024-01-07T03:09:04;5.25;;;2.78;;
29662;SDS011;16578;53.266;7.920;2024-01-07T03:11:30;3.85;;;2.67;;
29662;SDS011;16578;53.266;7.920;2024-01-07T03:13:56;5.15;;;2.55;;
29662;SDS011;16578;53.266;7.920;2024-01-07T03:16:22;4.18;;;2.83;;
29662;SDS011;16578;53.266;7.920;2024-01-07T03:18:48;3.60;;;2.53;;
29662;SDS011;16578;53.266;7.920;2024-01-07T03:21:17;4.30;;;2.28;;
29662;SDS011;16578;53.266;7.920;2024-01-07T03:23:47;4.05;;;2.40;;
29662;SDS011;16578;53.266;7.920;2024-01-07T03:26:13;2.97;;;2.20;;
29662;SDS011;16578;53.266;7.920;2024-01-07T03:28:40;4.50;;;2.33;;
29662;SDS011;16578;53.266;7.920;2024-01-07T03:31:10;4.03;;;2.55;;
29662;SDS011;16578;53.266;7.920;2024-01-07T03:33:38;3.72;;;2.40;;
29662;SDS011;16578;53.266;7.920;2024-01-07T03:36:10;4.00;;;2.40;;
29662;SDS011;16578;53.266;7.920;2024-01-07T03:38:37;3.42;;;2.40;;
29662;SDS011;16578;53.266;7.920;2024-01-07T03:41:03;3.60;;;2.40;;
29662;SDS011;16578;53.266;7.920;2024-01-07T03:43:29;4.18;;;2.17;;
29662;SDS011;16578;53.266;7.920;2024-01-07T03:45:55;3.75;;;2.30;;
29662;SDS011;16578;53.266;7.920;2024-01-07T03:48:20;3.35;;;2.08;;
29662;SDS011;16578;53.266;7.920;2024-01-07T03:50:46;5.40;;;2.13;;
29662;SDS011;16578;53.266;7.920;2024-01-07T03:53:12;3.30;;;2.25;;
29662;SDS011;16578;53.266;7.920;2024-01-07T03:55:38;3.55;;;2.03;;
29662;SDS011;16578;53.266;7.920;2024-01-07T03:58:04;3.25;;;2.17;;
29662;SDS011;16578;53.266;7.920;2024-01-07T04:00:33;3.25;;;2.42;;
29662;SDS011;16578;53.266;7.920;2024-01-07T04:02:59;3.90;;;2.17;;
29662;SDS011;16578;53.266;7.920;2024-01-07T04:05:25;4.30;;;2.08;;
29662;SDS011;16578;53.266;7.920;2024-01-07T04:07:51;2.60;;;2.28;;
29662;SDS011;16578;53.266;7.920;2024-01-07T04:10:16;3.30;;;1.90;;
29662;SDS011;16578;53.266;7.920;2024-01-07T04:12:42;3.15;;;1.77;;
29662;SDS011;16578;53.266;7.920;2024-01-07T04:15:08;2.53;;;1.80;;
29662;SDS011;16578;53.266;7.920;2024-01-07T04:17:35;2.58;;;1.95;;
29662;SDS011;16578;53.266;7.920;2024-01-07T04:20:00;6.15;;;2.38;;
29662;SDS011;16578;53.266;7.920;2024-01-07T04:22:26;2.67;;;2.08;;
29662;SDS011;16578;53.266;7.920;2024-01-07T04:24:52;2.33;;;1.80;;
29662;SDS011;16578;53.266;7.920;2024-01-07T04:27:17;3.42;;;1.73;;
29662;SDS011;16578;53.266;7.920;2024-01-07T04:29:43;3.22;;;1.90;;
29662;SDS011;16578;53.266;7.920;2024-01-07T04:32:09;2.65;;;1.90;;
29662;SDS011;16578;53.266;7.920;2024-01-07T04:34:34;2.67;;;2.03;;
29662;SDS011;16578;53.266;7.920;2024-01-07T04:37:00;3.58;;;2.05;;
29662;SDS011;16578;53.266;7.920;2024-01-07T04:39:25;3.90;;;1.98;;
29662;SDS011;16578;53.266;7.920;2024-01-07T04:41:51;2.20;;;2.00;;
29662;SDS011;16578;53.266;7.920;2024-01-07T04:44:17;5.90;;;2.20;;
29662;SDS011;16578;53.266;7.920;2024-01-07T04:46:42;3.47;;;2.10;;
29662;SDS011;16578;53.266;7.920;2024-01-07T04:49:08;3.00;;;2.05;;
29662;SDS011;16578;53.266;7.920;2024-01-07T04:51:33;3.03;;;2.03;;
29662;SDS011;16578;53.266;7.920;2024-01-07T04:53:59;4.82;;;2.42;;
29662;SDS011;16578;53.266;7.920;2024-01-07T04:56:24;4.65;;;2.00;;
29662;SDS011;16578;53.266;7.920;2024-01-07T04:58:50;3.22;;;2.60;;
29662;SDS011;16578;53.266;7.920;2024-01-07T05:01:15;3.95;;;2.60;;
29662;SDS011;16578;53.266;7.920;2024-01-07T05:03:41;2.30;;;1.92;;
29662;SDS011;16578;53.266;7.920;2024-01-07T05:06:10;4.90;;;2.13;;
29662;SDS011;16578;53.266;7.920;2024-01-07T05:08:36;3.08;;;1.52;;
29662;SDS011;16578;53.266;7.920;2024-01-07T05:11:03;3.35;;;1.73;;
29662;SDS011;16578;53.266;7.920;2024-01-07T05:13:29;2.67;;;1.75;;
29662;SDS011;16578;53.266;7.920;2024-01-07T05:15:55;5.32;;;2.63;;
29662;SDS011;16578;53.266;7.920;2024-01-07T05:18:21;4.35;;;1.67;;
29662;SDS011;16578;53.266;7.920;2024-01-07T05:20:50;4.82;;;2.15;;
29662;SDS011;16578;53.266;7.920;2024-01-07T05:23:16;6.13;;;1.75;;
29662;SDS011;16578;53.266;7.920;2024-01-07T05:25:42;2.58;;;1.77;;
29662;SDS011;16578;53.266;7.920;2024-01-07T05:28:09;3.47;;;2.03;;
29662;SDS011;16578;53.266;7.920;2024-01-07T05:30:35;2.85;;;1.95;;
29662;SDS011;16578;53.266;7.920;2024-01-07T05:33:00;3.58;;;2.15;;
29662;SDS011;16578;53.266;7.920;2024-01-07T05:35:27;3.90;;;2.08;;
29662;SDS011;16578;53.266;7.920;2024-01-07T05:37:52;2.15;;;1.70;;
29662;SDS011;16578;53.266;7.920;2024-01-07T05:40:18;2.95;;;1.98;;
29662;SDS011;16578;53.266;7.920;2024-01-07T05:42:44;1.92;;;1.50;;
29662;SDS011;16578;53.266;7.920;2024-01-07T05:45:09;2.65;;;1.70;;
29662;SDS011;16578;53.266;7.920;2024-01-07T05:47:35;2.10;;;1.70;;
29662;SDS011;16578;53.266;7.920;2024-01-07T05:50:00;2.25;;;1.63;;
29662;SDS011;16578;53.266;7.920;2024-01-07T05:52:27;3.85;;;1.60;;
29662;SDS011;16578;53.266;7.920;2024-01-07T05:54:52;4.93;;;1.80;;
29662;SDS011;16578;53.266;7.920;2024-01-07T05:57:18;2.63;;;1.48;;
29662;SDS011;16578;53.266;7.920;2024-01-07T05:59:44;3.55;;;1.90;;
29662;SDS011;16578;53.266;7.920;2024-01-07T06:02:10;1.42;;;1.17;;
29662;SDS011;16578;53.266;7.920;2024-01-07T06:04:39;2.30;;;1.95;;
29662;SDS011;16578;53.266;7.920;2024-01-07T06:07:04;2.70;;;1.55;;
29662;SDS011;16578;53.266;7.920;2024-01-07T06:09:30;3.95;;;2.03;;
29662;SDS011;16578;53.266;7.920;2024-01-07T06:11:55;4.20;;;2.20;;
29662;SDS011;16578;53.266;7.920;2024-01-07T06:14:22;2.92;;;1.92;;
29662;SDS011;16578;53.266;7.920;2024-01-07T06:16:48;2.13;;;1.40;;
29662;SDS011;16578;53.266;7.920;2024-01-07T06:19:13;2.50;;;1.83;;
29662;SDS011;16578;53.266;7.920;2024-01-07T06:21:41;1.85;;;1.40;;
29662;SDS011;16578;53.266;7.920;2024-01-07T06:24:10;4.10;;;1.92;;
29662;SDS011;16578;53.266;7.920;2024-01-07T06:26:36;1.90;;;1.50;;
29662;SDS011;16578;53.266;7.920;2024-01-07T06:29:02;2.13;;;1.80;;
29662;SDS011;16578;53.266;7.920;2024-01-07T06:31:27;3.63;;;2.00;;
29662;SDS011;16578;53.266;7.920;2024-01-07T06:33:53;2.33;;;1.52;;
29662;SDS011;16578;53.266;7.920;2024-01-07T06:36:21;2.70;;;1.92;;
29662;SDS011;16578;53.266;7.920;2024-01-07T06:38:47;2.85;;;1.73;;
29662;SDS011;16578;53.266;7.920;2024-01-07T06:41:13;3.78;;;2.00;;
29662;SDS011;16578;53.266;7.920;2024-01-07T06:43:39;2.85;;;1.75;;
29662;SDS011;16578;53.266;7.920;2024-01-07T06:46:05;3.17;;;2.17;;
29662;SDS011;16578;53.266;7.920;2024-01-07T06:48:31;3.55;;;2.08;;
29662;SDS011;16578;53.266;7.920;2024-01-07T06:50:57;3.03;;;1.67;;
29662;SDS011;16578;53.266;7.920;2024-01-07T06:53:22;3.10;;;2.08;;
29662;SDS011;16578;53.266;7.920;2024-01-07T06:55:49;4.72;;;1.50;;
29662;SDS011;16578;53.266;7.920;2024-01-07T06:58:15;3.75;;;1.95;;
29662;SDS011;16578;53.266;7.920;2024-01-07T07:00:40;1.50;;;1.40;;
29662;SDS011;16578;53.266;7.920;2024-01-07T07:03:06;2.05;;;1.85;;
29662;SDS011;16578;53.266;7.920;2024-01-07T07:05:33;1.63;;;1.50;;
29662;SDS011;16578;53.266;7.920;2024-01-07T07:07:58;2.13;;;1.58;;
29662;SDS011;16578;53.266;7.920;2024-01-07T07:10:24;1.83;;;1.40;;
29662;SDS011;16578;53.266;7.920;2024-01-07T07:12:50;2.75;;;1.63;;
29662;SDS011;16578;53.266;7.920;2024-01-07T07:15:16;2.25;;;1.60;;
29662;SDS011;16578;53.266;7.920;2024-01-07T07:17:42;4.35;;;1.75;;
29662;SDS011;16578;53.266;7.920;2024-01-07T07:20:08;1.85;;;1.60;;
29662;SDS011;16578;53.266;7.920;2024-01-07T07:22:34;1.58;;;1.45;;
29662;SDS011;16578;53.266;7.920;2024-01-07T07:24:59;5.03;;;2.00;;
29662;SDS011;16578;53.266;7.920;2024-01-07T07:27:25;3.70;;;1.85;;
29662;SDS011;16578;53.266;7.920;2024-01-07T07:29:50;2.03;;;1.50;;
29662;SDS011;16578;53.266;7.920;2024-01-07T07:32:16;3.95;;;1.80;;
29662;SDS011;16578;53.266;7.920;2024-01-07T07:34:41;4.63;;;1.80;;
29662;SDS011;16578;53.266;7.920;2024-01-07T07:37:07;2.35;;;1.70;;
29662;SDS011;16578;53.266;7.920;2024-01-07T07:39:33;3.28;;;1.90;;
29662;SDS011;16578;53.266;7.920;2024-01-07T07:41:58;2.45;;;1.92;;
29662;SDS011;16578;53.266;7.920;2024-01-07T07:44:24;2.80;;;1.90;;
29662;SDS011;16578;53.266;7.920;2024-01-07T07:46:50;2.17;;;1.50;;
29662;SDS011;16578;53.266;7.920;2024-01-07T07:49:16;2.67;;;1.95;;
29662;SDS011;16578;53.266;7.920;2024-01-07T07:51:42;2.22;;;1.70;;
29662;SDS011;16578;53.266;7.920;2024-01-07T07:54:08;2.03;;;1.80;;
29662;SDS011;16578;53.266;7.920;2024-01-07T07:56:34;4.88;;;1.80;;
29662;SDS011;16578;53.266;7.920;2024-01-07T07:59:00;5.20;;;2.50;;
29662;SDS011;16578;53.266;7.920;2024-01-07T08:01:29;3.63;;;1.88;;
29662;SDS011;16578;53.266;7.920;2024-01-07T08:03:55;2.33;;;1.67;;
29662;SDS011;16578;53.266;7.920;2024-01-07T08:06:20;2.00;;;1.60;;
29662;SDS011;16578;53.266;7.920;2024-01-07T08:08:46;2.42;;;1.65;;
29662;SDS011;16578;53.266;7.920;2024-01-07T08:11:12;2.95;;;1.65;;
29662;SDS011;16578;53.266;7.920;2024-01-07T08:13:38;3.70;;;1.92;;
29662;SDS011;16578;53.266;7.920;2024-01-07T08:16:03;1.83;;;1.70;;
29662;SDS011;16578;53.266;7.920;2024-01-07T08:18:30;2.20;;;1.67;;
29662;SDS011;16578;53.266;7.920;2024-01-07T08:20:56;6.05;;;2.20;;
29662;SDS011;16578;53.266;7.920;2024-01-07T08:23:23;4.03;;;2.13;;
29662;SDS011;16578;53.266;7.920;2024-01-07T08:25:50;5.82;;;1.92;;
29662;SDS011;16578;53.266;7.920;2024-01-07T08:28:16;2.15;;;1.80;;
29662;SDS011;16578;53.266;7.920;2024-01-07T08:30:42;4.38;;;2.60;;
29662;SDS011;16578;53.266;7.920;2024-01-07T08:33:09;2.45;;;1.73;;
29662;SDS011;16578;53.266;7.920;2024-01-07T08:35:35;4.70;;;2.03;;
29662;SDS011;16578;53.266;7.920;2024-01-07T08:38:00;3.10;;;2.10;;
29662;SDS011;16578;53.266;7.920;2024-01-07T08:40:26;5.63;;;1.92;;
29662;SDS011;16578;53.266;7.920;2024-01-07T08:42:52;4.13;;;2.25;;
29662;SDS011;16578;53.266;7.920;2024-01-07T08:45:17;2.47;;;1.83;;
29662;SDS011;16578;53.266;7.920;2024-01-07T08:47:43;5.72;;;2.45;;
29662;SDS011;16578;53.266;7.920;2024-01-07T08:50:09;3.22;;;2.00;;
29662;SDS011;16578;53.266;7.920;2024-01-07T08:52:35;3.45;;;1.92;;
29662;SDS011;16578;53.266;7.920;2024-01-07T08:55:01;4.55;;;1.92;;
29662;SDS011;16578;53.266;7.920;2024-01-07T08:57:27;2.50;;;1.75;;
29662;SDS011;16578;53.266;7.920;2024-01-07T08:59:53;5.05;;;2.65;;
29662;SDS011;16578;53.266;7.920;2024-01-07T09:02:18;3.67;;;2.15;;
29662;SDS011;16578;53.266;7.920;2024-01-07T09:04:44;2.17;;;1.65;;
29662;SDS011;16578;53.266;7.920;2024-01-07T09:07:10;3.05;;;2.00;;
29662;SDS011;16578;53.266;7.920;2024-01-07T09:09:35;6.22;;;2.20;;
29662;SDS011;16578;53.266;7.920;2024-01-07T09:12:01;7.00;;;2.38;;
29662;SDS011;16578;53.266;7.920;2024-01-07T09:14:28;5.13;;;2.10;;
29662;SDS011;16578;53.266;7.920;2024-01-07T09:16:55;7.20;;;2.38;;
29662;SDS011;16578;53.266;7.920;2024-01-07T09:19:20;3.75;;;2.20;;
29662;SDS011;16578;53.266;7.920;2024-01-07T09:21:46;3.05;;;2.20;;
29662;SDS011;16578;53.266;7.920;2024-01-07T09:24:11;4.43;;;2.42;;
29662;SDS011;16578;53.266;7.920;2024-01-07T09:26:37;4.50;;;2.53;;
29662;SDS011;16578;53.266;7.920;2024-01-07T09:29:03;3.67;;;2.65;;
29662;SDS011;16578;53.266;7.920;2024-01-07T09:31:28;7.95;;;3.22;;
29662;SDS011;16578;53.266;7.920;2024-01-07T09:33:54;4.47;;;3.10;;
29662;SDS011;16578;53.266;7.920;2024-01-07T09:36:20;7.55;;;3.78;;
29662;SDS011;16578;53.266;7.920;2024-01-07T09:38:45;6.47;;;3.75;;
29662;SDS011;16578;53.266;7.920;2024-01-07T09:41:11;6.22;;;3.92;;
29662;SDS011;16578;53.266;7.920;2024-01-07T09:43:36;7.88;;;4.03;;
29662;SDS011;16578;53.266;7.920;2024-01-07T09:46:02;6.55;;;3.70;;
29662;SDS011;16578;53.266;7.920;2024-01-07T09:48:28;5.75;;;4.10;;
29662;SDS011;16578;53.266;7.920;2024-01-07T09:50:55;5.90;;;3.92;;
29662;SDS011;16578;53.266;7.920;2024-01-07T09:53:24;6.55;;;4.10;;
29662;SDS011;16578;53.266;7.920;2024-01-07T10:01:08;6.53;;;3.85;;
29662;SDS011;16578;53.266;7.920;2024-01-07T10:03:34;7.18;;;4.85;;
29662;SDS011;16578;53.266;7.920;2024-01-07T10:06:00;6.18;;;4.18;;
29662;SDS011;16578;53.266;7.920;2024-01-07T10:08:25;7.07;;;4.65;;
29662;SDS011;16578;53.266;7.920;2024-01-07T10:10:51;6.78;;;4.47;;
29662;SDS011;16578;53.266;7.920;2024-01-07T10:13:16;9.02;;;5.13;;
29662;SDS011;16578;53.266;7.920;2024-01-07T10:15:42;8.63;;;4.90;;
29662;SDS011;16578;53.266;7.920;2024-01-07T10:18:08;6.68;;;4.75;;
29662;SDS011;16578;53.266;7.920;2024-01-07T10:20:34;7.45;;;4.47;;
29662;SDS011;16578;53.266;7.920;2024-01-07T10:23:00;7.05;;;4.20;;
29662;SDS011;16578;53.266;7.920;2024-01-07T10:25:27;6.27;;;4.00;;
29662;SDS011;16578;53.266;7.920;2024-01-07T10:27:58;5.85;;;3.97;;
29662;SDS011;16578;53.266;7.920;2024-01-07T10:30:25;8.10;;;3.85;;
29662;SDS011;16578;53.266;7.920;2024-01-07T10:32:54;6.43;;;3.92;;
29662;SDS011;16578;53.266;7.920;2024-01-07T10:35:33;8.23;;;4.10;;
29662;SDS011;16578;53.266;7.920;2024-01-07T10:38:00;10.15;;;4.50;;
29662;SDS011;16578;53.266;7.920;2024-01-07T10:40:30;7.95;;;4.40;;
29662;SDS011;16578;53.266;7.920;2024-01-07T10:42:56;6.85;;;3.95;;
29662;SDS011;16578;53.266;7.920;2024-01-07T10:45:23;5.82;;;4.10;;
29662;SDS011;16578;53.266;7.920;2024-01-07T10:47:50;8.98;;;4.35;;
29662;SDS011;16578;53.266;7.920;2024-01-07T10:50:19;6.97;;;4.00;;
29662;SDS011;16578;53.266;7.920;2024-01-07T10:52:48;5.60;;;3.92;;
29662;SDS011;16578;53.266;7.920;2024-01-07T10:55:18;7.28;;;3.67;;
29662;SDS011;16578;53.266;7.920;2024-01-07T10:57:44;6.93;;;4.00;;
29662;SDS011;16578;53.266;7.920;2024-01-07T11:00:12;4.60;;;3.38;;
29662;SDS011;16578;53.266;7.920;2024-01-07T11:02:49;5.05;;;3.63;;
29662;SDS011;16578;53.266;7.920;2024-01-07T11:08:24;6.97;;;3.95;;
29662;SDS011;16578;53.266;7.920;2024-01-07T11:10:55;9.50;;;5.20;;
29662;SDS011;16578;53.266;7.920;2024-01-07T11:13:35;9.50;;;4.28;;
29662;SDS011;16578;53.266;7.920;2024-01-07T11:16:03;6.72;;;4.50;;
29662;SDS011;16578;53.266;7.920;2024-01-07T11:18:30;7.38;;;4.38;;
29662;SDS011;16578;53.266;7.920;2024-01-07T11:20:59;8.45;;;4.60;;
29662;SDS011;16578;53.266;7.920;2024-01-07T11:23:32;6.57;;;4.22;;
29662;SDS011;16578;53.266;7.920;2024-01-07T11:26:01;7.13;;;4.40;;
29662;SDS011;16578;53.266;7.920;2024-01-07T11:28:43;8.50;;;4.47;;
29662;SDS011;16578;53.266;7.920;2024-01-07T11:31:10;9.40;;;4.88;;
29662;SDS011;16578;53.266;7.920;2024-01-07T11:33:39;7.13;;;4.38;;
29662;SDS011;16578;53.266;7.920;2024-01-07T11:36:07;6.00;;;3.90;;
29662;SDS011;16578;53.266;7.920;2024-01-07T11:38:36;7.03;;;4.60;;
29662;SDS011;16578;53.266;7.920;2024-01-07T11:41:05;5.80;;;3.92;;
29662;SDS011;16578;53.266;7.920;2024-01-07T11:43:32;5.13;;;3.13;;
29662;SDS011;16578;53.266;7.920;2024-01-07T11:46:00;5.93;;;3.78;;
29662;SDS011;16578;53.266;7.920;2024-01-07T11:48:26;6.35;;;4.43;;
29662;SDS011;16578;53.266;7.920;2024-01-07T11:50:52;9.65;;;4.10;;
29662;SDS011;16578;53.266;7.920;2024-01-07T11:53:18;6.78;;;4.65;;
29662;SDS011;16578;53.266;7.920;2024-01-07T11:55:44;6.45;;;4.32;;
29662;SDS011;16578;53.266;7.920;2024-01-07T11:58:10;7.18;;;3.95;;
29662;SDS011;16578;53.266;7.920;2024-01-07T12:00:35;8.73;;;5.00;;
29662;SDS011;16578;53.266;7.920;2024-01-07T12:03:01;6.40;;;3.85;;
29662;SDS011;16578;53.266;7.920;2024-01-07T12:05:28;6.97;;;3.83;;
29662;SDS011;16578;53.266;7.920;2024-01-07T12:07:54;7.97;;;4.40;;
29662;SDS011;16578;53.266;7.920;2024-01-07T12:10:20;8.98;;;4.22;;
29662;SDS011;16578;53.266;7.920;2024-01-07T12:12:46;9.25;;;4.88;;
29662;SDS011;16578;53.266;7.920;2024-01-07T12:15:12;7.80;;;4.80;;
29662;SDS011;16578;53.266;7.920;2024-01-07T12:17:39;6.38;;;4.15;;
29662;SDS011;16578;53.266;7.920;2024-01-07T12:20:05;6.78;;;4.18;;
29662;SDS011;16578;53.266;7.920;2024-01-07T12:22:33;7.40;;;4.60;;
29662;SDS011;16578;53.266;7.920;2024-01-07T12:25:02;6.57;;;4.00;;
29662;SDS011;16578;53.266;7.920;2024-01-07T12:27:29;7.57;;;3.97;;
29662;SDS011;16578;53.266;7.920;2024-01-07T12:29:55;6.43;;;4.35;;
29662;SDS011;16578;53.266;7.920;2024-01-07T12:32:22;7.53;;;4.05;;
29662;SDS011;16578;53.266;7.920;2024-01-07T12:34:48;5.90;;;3.92;;
29662;SDS011;16578;53.266;7.920;2024-01-07T12:37:14;6.65;;;4.13;;
29662;SDS011;16578;53.266;7.920;2024-01-07T12:39:40;10.27;;;3.83;;
29662;SDS011;16578;53.266;7.920;2024-01-07T12:42:05;10.32;;;4.32;;
29662;SDS011;16578;53.266;7.920;2024-01-07T12:44:32;6.45;;;3.92;;
29662;SDS011;16578;53.266;7.920;2024-01-07T12:46:58;6.72;;;4.70;;
29662;SDS011;16578;53.266;7.920;2024-01-07T12:49:23;8.65;;;4.80;;
29662;SDS011;16578;53.266;7.920;2024-01-07T12:51:49;8.63;;;4.13;;
29662;SDS011;16578;53.266;7.920;2024-01-07T12:54:15;7.50;;;4.05;;
29662;SDS011;16578;53.266;7.920;2024-01-07T12:56:41;8.80;;;4.40;;
29662;SDS011;16578;53.266;7.920;2024-01-07T12:59:07;8.60;;;3.90;;
29662;SDS011;16578;53.266;7.920;2024-01-07T13:01:32;9.65;;;4.40;;
29662;SDS011;16578;53.266;7.920;2024-01-07T13:03:59;6.50;;;4.38;;
29662;SDS011;16578;53.266;7.920;2024-01-07T13:06:25;7.05;;;4.28;;
29662;SDS011;16578;53.266;7.920;2024-01-07T13:08:51;8.13;;;4.45;;
29662;SDS011;16578;53.266;7.920;2024-01-07T13:11:16;8.52;;;4.43;;
29662;SDS011;16578;53.266;7.920;2024-01-07T13:13:42;5.35;;;3.97;;
29662;SDS011;16578;53.266;7.920;2024-01-07T13:16:08;7.13;;;4.32;;
29662;SDS011;16578;53.266;7.920;2024-01-07T13:18:33;7.10;;;4.38;;
29662;SDS011;16578;53.266;7.920;2024-01-07T13:20:59;5.65;;;4.03;;
29662;SDS011;16578;53.266;7.920;2024-01-07T13:23:24;7.97;;;4.05;;
29662;SDS011;16578;53.266;7.920;2024-01-07T13:25:51;6.90;;;3.85;;
29662;SDS011;16578;53.266;7.920;2024-01-07T13:28:17;6.95;;;3.85;;
29662;SDS011;16578;53.266;7.920;2024-01-07T13:30:42;11.60;;;3.70;;
29662;SDS011;16578;53.266;7.920;2024-01-07T13:33:08;5.30;;;3.33;;
29662;SDS011;16578;53.266;7.920;2024-01-07T13:35:33;6.10;;;3.75;;
29662;SDS011;16578;53.266;7.920;2024-01-07T13:38:00;4.63;;;3.60;;
29662;SDS011;16578;53.266;7.920;2024-01-07T13:40:26;5.93;;;3.53;;
29662;SDS011;16578;53.266;7.920;2024-01-07T13:42:52;7.45;;;3.30;;
29662;SDS011;16578;53.266;7.920;2024-01-07T13:45:19;5.65;;;3.53;;
29662;SDS011;16578;53.266;7.920;2024-01-07T13:47:50;5.70;;;3.47;;
29662;SDS011;16578;53.266;7.920;2024-01-07T13:50:16;6.10;;;3.75;;
29662;SDS011;16578;53.266;7.920;2024-01-07T13:52:43;11.82;;;4.07;;
29662;SDS011;16578;53.266;7.920;2024-01-07T13:55:08;5.85;;;4.03;;
29662;SDS011;16578;53.266;7.920;2024-01-07T13:57:35;5.80;;;3.38;;
29662;SDS011;16578;53.266;7.920;2024-01-07T14:00:00;5.82;;;3.65;;
29662;SDS011;16578;53.266;7.920;2024-01-07T14:02:33;7.05;;;3.60;;
29662;SDS011;16578;53.266;7.920;2024-01-07T14:04:58;6.07;;;3.50;;
29662;SDS011;16578;53.266;7.920;2024-01-07T14:07:24;6.40;;;3.67;;
29662;SDS011;16578;53.266;7.920;2024-01-07T14:09:51;5.22;;;3.65;;
29662;SDS011;16578;53.266;7.920;2024-01-07T14:12:17;5.65;;;3.63;;
29662;SDS011;16578;53.266;7.920;2024-01-07T14:14:43;6.85;;;3.72;;
29662;SDS011;16578;53.266;7.920;2024-01-07T14:17:08;5.10;;;3.60;;
29662;SDS011;16578;53.266;7.920;2024-01-07T14:19:34;7.22;;;3.55;;
29662;SDS011;16578;53.266;7.920;2024-01-07T14:22:00;5.40;;;3.80;;
29662;SDS011;16578;53.266;7.920;2024-01-07T14:24:26;9.13;;;3.72;;
29662;SDS011;16578;53.266;7.920;2024-01-07T14:26:51;6.55;;;3.60;;
29662;SDS011;16578;53.266;7.920;2024-01-07T14:29:17;6.95;;;3.53;;
29662;SDS011;16578;53.266;7.920;2024-01-07T14:31:42;6.43;;;3.90;;
29662;SDS011;16578;53.266;7.920;2024-01-07T14:34:11;6.85;;;3.72;;
29662;SDS011;16578;53.266;7.920;2024-01-07T14:36:40;6.40;;;3.92;;
29662;SDS011;16578;53.266;7.920;2024-01-07T14:39:09;4.75;;;3.60;;
29662;SDS011;16578;53.266;7.920;2024-01-07T14:41:35;8.00;;;4.10;;
29662;SDS011;16578;53.266;7.920;2024-01-07T14:44:01;7.05;;;4.05;;
29662;SDS011;16578;53.266;7.920;2024-01-07T14:46:28;4.75;;;3.50;;
29662;SDS011;16578;53.266;7.920;2024-01-07T14:48:54;5.63;;;2.80;;
29662;SDS011;16578;53.266;7.920;2024-01-07T14:51:19;5.10;;;3.30;;